Time;durP1;ratioP1;P1;durP2;ratioP2;P2;SDS_P1;SDS_P2;PMS_P1;PMS_P2;Temp;Humidity;BMP_temperature;BMP_pressure;BME280_temperature;BME280_humidity;BME280_pressure;Samples;Min_cycle;Max_cycle;Signal;HPM_P1;HPM_P2
2023/05/03 00:01:32;;;;;;;0.28;0.28;;;;;;;23.69;38.56;102821.13;5032092;28;96676;-74
2023/05/03 00:03:58;;;;;;;0.50;0.38;;;;;;;23.68;38.31;102828.50;5031563;28;96813;-74
2023/05/03 00:06:25;;;;;;;0.30;0.30;;;;;;;23.68;38.23;102820.28;5030417;28;96707;-73
2023/05/03 00:08:52;;;;;;;0.50;0.40;;;;;;;23.68;38.40;102828.50;5030970;28;96859;-74
2023/05/03 00:11:19;;;;;;;0.32;0.22;;;;;;;23.67;38.51;102821.28;5030473;28;96984;-74
2023/05/03 00:13:46;;;;;;;0.40;0.40;;;;;;;23.68;38.47;102813.91;5016746;27;97881;-74
2023/05/03 00:16:13;;;;;;;0.40;0.40;;;;;;;23.67;38.58;102821.28;5027867;28;97902;-74
2023/05/03 00:18:39;;;;;;;1.00;0.47;;;;;;;23.67;38.23;102812.19;5031487;27;96747;-74
2023/05/03 00:21:06;;;;;;;0.63;0.38;;;;;;;23.66;38.60;102819.56;5030280;28;97072;-74
2023/05/03 00:23:33;;;;;;;0.60;0.40;;;;;;;23.67;38.28;102817.66;5031980;27;98687;-74
2023/05/03 00:25:59;;;;;;;1.05;0.57;;;;;;;23.66;38.69;102807.72;5031321;27;97241;-73
2023/05/03 00:28:26;;;;;;;0.50;0.40;;;;;;;23.66;38.33;102803.09;5029000;27;96838;-74
2023/05/03 00:30:52;;;;;;;0.50;0.40;;;;;;;23.65;38.32;102809.59;5030025;28;96601;-73
2023/05/03 00:33:19;;;;;;;0.75;0.47;;;;;;;23.66;38.50;102808.56;5031457;27;97669;-73
2023/05/03 00:35:46;;;;;;;0.55;0.30;;;;;;;23.66;38.35;102810.47;5031302;28;96702;-73
2023/05/03 00:38:14;;;;;;;0.38;0.30;;;;;;;23.65;38.32;102812.34;5029712;28;96923;-73
2023/05/03 00:40:40;;;;;;;0.40;0.30;;;;;;;23.64;38.01;102810.59;5030896;28;96781;-74
2023/05/03 00:43:10;;;;;;;0.40;0.40;;;;;;;23.64;38.38;102801.50;5028552;28;99486;-74
2023/05/03 00:45:37;;;;;;;0.35;0.30;;;;;;;23.64;38.42;102807.84;5017393;28;96901;-74
2023/05/03 00:48:03;;;;;;;0.50;0.35;;;;;;;23.63;38.44;102810.75;5031275;28;96772;-74
2023/05/03 00:50:30;;;;;;;0.85;0.40;;;;;;;23.63;38.48;102819.84;5013114;28;96843;-74
2023/05/03 00:52:57;;;;;;;0.28;0.20;;;;;;;23.62;38.58;102818.13;5029439;28;100339;-74
2023/05/03 00:55:26;;;;;;;0.45;0.30;;;;;;;23.63;38.48;102821.72;5029127;28;98790;-74
2023/05/03 00:57:52;;;;;;;0.50;0.30;;;;;;;23.62;38.82;102818.13;5012914;28;96773;-74
2023/05/03 01:00:19;;;;;;;0.60;0.40;;;;;;;23.61;38.15;102819.13;5029857;28;97001;-74
2023/05/03 01:02:45;;;;;;;0.30;0.30;;;;;;;23.62;38.74;102820.00;5000354;28;99690;-73
2023/05/03 01:05:12;;;;;;;0.35;0.15;;;;;;;23.62;38.27;102817.25;5012809;28;98950;-74
2023/05/03 01:08:05;;;;;;;0.60;0.35;;;;;;;23.62;38.32;102818.13;5028740;28;97043;-74
2023/05/03 01:11:06;;;;;;;0.40;0.40;;;;;;;23.61;38.28;102810.91;5016983;28;98164;-73
2023/05/03 01:13:32;;;;;;;0.50;0.32;;;;;;;23.58;38.44;102811.19;5020399;28;100236;-73
2023/05/03 01:16:10;;;;;;;0.35;0.22;;;;;;;23.60;38.22;102822.00;5025144;28;97226;-73
2023/05/03 01:18:39;;;;;;;0.30;0.30;;;;;;;23.58;38.30;102819.41;5013030;28;97087;-74
2023/05/03 01:21:08;;;;;;;0.80;0.30;;;;;;;23.58;38.53;102815.81;5030536;28;97153;-74
2023/05/03 01:23:42;;;;;;;0.40;0.30;;;;;;;23.58;38.22;102821.28;5029026;28;99056;-74
2023/05/03 01:26:19;;;;;;;0.30;0.30;;;;;;;23.57;38.27;102816.81;5028961;27;98030;-75
2023/05/03 01:28:46;;;;;;;0.45;0.32;;;;;;;23.58;38.47;102813.06;5021025;28;96704;-74
2023/05/03 01:31:52;;;;;;;0.50;0.40;;;;;;;23.57;38.28;102814.09;5013873;28;97312;-74
2023/05/03 01:34:27;;;;;;;0.32;0.30;;;;;;;23.54;38.54;102817.94;5005751;28;99546;-74
2023/05/03 01:36:58;;;;;;;0.30;0.22;;;;;;;23.54;38.60;102819.81;5027692;28;97393;-74
2023/05/03 01:39:40;;;;;;;0.75;0.47;;;;;;;23.56;38.27;102828.81;5029332;28;96821;-74
2023/05/03 01:42:07;;;;;;;0.35;0.30;;;;;;;23.54;38.36;102831.66;5016726;28;97000;-73
2023/05/03 01:44:35;;;;;;;0.40;0.30;;;;;;;23.56;38.40;102826.06;5028557;28;98943;-74
2023/05/03 01:47:02;;;;;;;0.50;0.40;;;;;;;23.54;38.52;102831.66;5028554;27;97383;-74
2023/05/03 01:49:28;;;;;;;0.50;0.30;;;;;;;23.55;38.49;102827.06;5032587;28;96747;-74
2023/05/03 01:51:55;;;;;;;0.50;0.32;;;;;;;23.55;38.54;102829.81;5025104;27;97589;-74
2023/05/03 01:54:21;;;;;;;0.30;0.20;;;;;;;23.55;38.61;102824.34;5016600;27;96744;-74
2023/05/03 01:56:48;;;;;;;0.40;0.30;;;;;;;23.54;38.52;102825.31;5025981;28;98875;-74
2023/05/03 01:59:14;;;;;;;0.30;0.22;;;;;;;23.54;38.47;102820.69;5011696;28;96911;-74
2023/05/03 02:01:41;;;;;;;0.28;0.22;;;;;;;23.54;38.55;102819.81;5012021;28;96717;-74
2023/05/03 02:04:08;;;;;;;0.50;0.25;;;;;;;23.54;38.34;102826.19;5030230;28;98644;-73
2023/05/03 02:06:35;;;;;;;0.30;0.30;;;;;;;23.54;38.08;102828.91;5031846;28;99344;-74
2023/05/03 02:09:02;;;;;;;0.55;0.43;;;;;;;23.54;38.35;102822.56;5031334;28;96726;-74
2023/05/03 02:11:28;;;;;;;0.30;0.30;;;;;;;23.53;38.55;102831.81;5011796;28;96720;-73
2023/05/03 02:13:55;;;;;;;0.38;0.30;;;;;;;23.53;38.53;102824.44;5011716;28;99686;-74
2023/05/03 02:16:22;;;;;;;0.30;0.30;;;;;;;23.52;38.59;102817.22;5032921;28;97871;-73
2023/05/03 02:18:50;;;;;;;0.40;0.32;;;;;;;23.53;38.41;102824.44;5032296;28;96762;-74
2023/05/03 02:21:17;;;;;;;0.60;0.50;;;;;;;23.53;38.51;102829.06;5032042;27;96760;-73
2023/05/03 02:23:43;;;;;;;0.30;0.30;;;;;;;23.51;38.70;102829.22;5031493;28;97564;-74
2023/05/03 02:26:10;;;;;;;0.50;0.30;;;;;;;23.52;38.33;102830.06;5013671;28;99679;-73
2023/05/03 02:28:37;;;;;;;0.50;0.30;;;;;;;23.51;38.52;102826.47;5020107;28;96953;-74
2023/05/03 02:31:05;;;;;;;0.40;0.30;;;;;;;23.51;38.23;102831.09;5033110;28;96728;-74
2023/05/03 02:33:31;;;;;;;0.85;0.40;;;;;;;23.51;38.43;102828.34;5033941;28;97512;-73
2023/05/03 02:35:58;;;;;;;0.50;0.30;;;;;;;23.50;38.30;102819.25;5034053;28;98269;-73
2023/05/03 02:38:26;;;;;;;0.43;0.40;;;;;;;23.51;38.39;102817.38;5034475;28;96706;-73
2023/05/03 02:40:52;;;;;;;0.38;0.30;;;;;;;23.50;38.24;102818.38;5034900;28;96824;-73
2023/05/03 02:43:19;;;;;;;0.45;0.35;;;;;;;23.50;38.37;102824.72;5032011;27;99851;-74
2023/05/03 02:45:46;;;;;;;0.63;0.40;;;;;;;23.49;38.31;102812.03;5031032;28;102067;-73
2023/05/03 02:48:12;;;;;;;0.30;0.30;;;;;;;23.49;38.28;102817.53;5031558;28;97099;-73
2023/05/03 02:50:39;;;;;;;0.35;0.20;;;;;;;23.49;38.40;102803.81;5031282;28;97392;-74
2023/05/03 02:53:05;;;;;;;0.63;0.30;;;;;;;23.49;38.53;102802.94;5033061;27;96830;-74
2023/05/03 02:55:33;;;;;;;0.90;0.40;;;;;;;23.49;38.40;102794.72;5031276;28;98493;-73
2023/05/03 02:58:00;;;;;;;0.50;0.40;;;;;;;23.48;38.45;102787.50;5031671;27;96620;-74
2023/05/03 03:00:27;;;;;;;0.45;0.45;;;;;;;23.47;38.34;102783.91;5027761;28;97296;-73
2023/05/03 03:02:53;;;;;;;0.30;0.20;;;;;;;23.46;38.29;102780.28;5021380;28;97080;-74
2023/05/03 03:05:20;;;;;;;0.50;0.40;;;;;;;23.46;38.17;102780.28;5033124;27;97192;-74
2023/05/03 03:07:49;;;;;;;0.40;0.30;;;;;;;23.46;38.59;102772.06;5031360;27;96671;-74
2023/05/03 03:10:16;;;;;;;0.45;0.30;;;;;;;23.46;38.40;102771.19;5031559;28;96675;-74
2023/05/03 03:12:43;;;;;;;0.50;0.40;;;;;;;23.45;38.40;102773.06;5029834;28;100485;-74
2023/05/03 03:15:18;;;;;;;0.43;0.30;;;;;;;23.46;38.38;102769.31;5031028;28;99079;-74
2023/05/03 03:17:45;;;;;;;0.60;0.50;;;;;;;23.45;38.29;102755.75;5030975;27;96908;-74
2023/05/03 03:20:12;;;;;;;0.45;0.30;;;;;;;23.45;38.86;102761.25;5030942;28;97110;-73
2023/05/03 03:22:46;;;;;;;0.40;0.30;;;;;;;23.44;38.30;102767.72;5030707;27;97325;-73
2023/05/03 03:25:12;;;;;;;0.47;0.40;;;;;;;23.43;38.43;102761.38;5030653;28;98538;-73
2023/05/03 03:27:39;;;;;;;0.45;0.35;;;;;;;23.42;38.71;102770.63;5031126;28;96785;-74
2023/05/03 03:30:08;;;;;;;0.40;0.30;;;;;;;23.43;38.59;102772.34;5031262;28;96725;-74
2023/05/03 03:32:41;;;;;;;0.50;0.40;;;;;;;23.42;38.36;102784.34;5028183;27;98017;-74
2023/05/03 03:35:14;;;;;;;0.50;0.30;;;;;;;23.42;38.27;102786.22;5019477;28;97409;-75
2023/05/03 03:37:40;;;;;;;0.40;0.28;;;;;;;23.42;38.34;102795.31;5030421;27;96647;-74
2023/05/03 03:40:08;;;;;;;0.65;0.25;;;;;;;23.42;38.17;102799.91;5031117;28;96925;-74
2023/05/03 03:42:35;;;;;;;0.20;0.20;;;;;;;23.42;38.45;102799.91;5016692;28;100256;-74
2023/05/03 03:45:03;;;;;;;0.30;0.30;;;;;;;23.41;38.22;102793.56;5029855;28;98475;-73
2023/05/03 03:47:30;;;;;;;0.82;0.38;;;;;;;23.40;38.29;102788.22;5010865;28;97078;-74
2023/05/03 03:50:00;;;;;;;0.90;0.32;;;;;;;23.40;38.42;102794.59;5030651;28;96829;-74
2023/05/03 03:52:29;;;;;;;0.38;0.30;;;;;;;23.41;38.31;102795.44;5030434;28;98786;-74
2023/05/03 03:54:56;;;;;;;0.35;0.30;;;;;;;23.39;38.40;102781.88;5015803;28;100445;-74
2023/05/03 03:57:24;;;;;;;0.20;0.20;;;;;;;23.39;38.48;102779.13;5029475;27;96822;-73
2023/05/03 03:59:51;;;;;;;0.32;0.25;;;;;;;23.38;38.27;102780.16;5014031;28;96942;-74
2023/05/03 04:02:18;;;;;;;0.22;0.20;;;;;;;23.38;38.32;102780.16;5026077;28;101433;-74
2023/05/03 04:04:45;;;;;;;0.47;0.40;;;;;;;23.38;38.26;102790.25;5030964;27;97442;-73
2023/05/03 04:07:14;;;;;;;0.32;0.30;;;;;;;23.38;38.45;102782.03;5015225;28;96901;-74
2023/05/03 04:09:41;;;;;;;0.65;0.30;;;;;;;23.38;37.93;102790.25;5030161;27;96903;-73
2023/05/03 04:12:07;;;;;;;0.30;0.30;;;;;;;23.37;38.49;102789.38;5012840;28;100326;-73
2023/05/03 04:14:34;;;;;;;0.30;0.22;;;;;;;23.37;38.46;102783.91;5031868;27;96626;-74
2023/05/03 04:17:00;;;;;;;0.38;0.30;;;;;;;23.37;38.23;102788.53;5031772;28;97148;-73
2023/05/03 04:19:27;;;;;;;0.55;0.30;;;;;;;23.37;38.49;102792.13;5030751;27;96860;-73
2023/05/03 04:21:54;;;;;;;0.38;0.22;;;;;;;23.36;38.08;102798.63;5020122;27;97970;-74
2023/05/03 04:24:20;;;;;;;0.30;0.28;;;;;;;23.36;38.62;102809.59;5027171;28;97217;-74
2023/05/03 04:26:50;;;;;;;0.40;0.30;;;;;;;23.36;38.54;102805.97;5020141;28;96727;-73
2023/05/03 04:29:23;;;;;;;0.40;0.30;;;;;;;23.34;38.16;102811.63;5026907;28;97014;-74
2023/05/03 04:31:50;;;;;;;0.22;0.22;;;;;;;23.34;38.37;102808.88;5031370;28;96916;-73
2023/05/03 04:34:17;;;;;;;0.40;0.35;;;;;;;23.35;38.36;102807.00;5012993;28;98481;-74
2023/05/03 04:36:47;;;;;;;0.32;0.32;;;;;;;23.34;38.47;102817.09;5030521;28;97192;-74
2023/05/03 04:39:15;;;;;;;0.28;0.25;;;;;;;23.34;38.39;102808.88;5030180;27;97272;-74
2023/05/03 04:41:44;;;;;;;0.50;0.40;;;;;;;23.33;38.21;102811.75;5029652;28;97744;-74
2023/05/03 04:44:13;;;;;;;0.50;0.30;;;;;;;23.33;38.51;102812.63;5029635;27;98581;-73
2023/05/03 04:46:42;;;;;;;0.70;0.40;;;;;;;23.33;38.27;102809.00;5013374;28;96688;-73
2023/05/03 04:49:08;;;;;;;0.30;0.20;;;;;;;23.34;38.33;102813.50;5030136;28;96892;-74
2023/05/03 04:51:35;;;;;;;0.70;0.22;;;;;;;23.33;38.27;102822.72;5028724;28;100019;-73
2023/05/03 04:54:02;;;;;;;0.38;0.30;;;;;;;23.32;38.57;102832.84;5029768;28;97506;-74
2023/05/03 04:56:28;;;;;;;0.40;0.30;;;;;;;23.31;38.47;102825.63;5029395;28;96821;-74
2023/05/03 04:59:05;;;;;;;0.20;0.20;;;;;;;23.31;38.45;102835.72;5024039;27;96908;-74
2023/05/03 05:01:32;;;;;;;0.57;0.40;;;;;;;23.31;38.28;102838.47;5009159;28;99055;-73
2023/05/03 05:04:01;;;;;;;0.40;0.40;;;;;;;23.31;38.18;102842.06;5023256;28;99820;-74
2023/05/03 05:06:36;;;;;;;0.40;0.20;;;;;;;23.31;38.17;102847.56;5020774;28;96945;-74
2023/05/03 05:09:06;;;;;;;0.68;0.40;;;;;;;23.32;38.04;102848.41;5015677;28;96750;-73
2023/05/03 05:11:33;;;;;;;0.30;0.30;;;;;;;23.30;38.11;102851.31;5029221;28;99955;-74
2023/05/03 05:14:00;;;;;;;0.38;0.30;;;;;;;23.31;38.40;102857.66;5029359;28;97516;-74
2023/05/03 05:16:26;;;;;;;0.30;0.30;;;;;;;23.31;38.18;102857.66;5028980;28;96989;-74
2023/05/03 05:18:53;;;;;;;0.45;0.30;;;;;;;23.30;38.14;102851.31;5029717;28;97239;-74
2023/05/03 05:21:23;;;;;;;0.38;0.20;;;;;;;23.30;38.16;102864.16;5028936;27;100494;-74
2023/05/03 05:23:49;;;;;;;0.30;0.30;;;;;;;23.30;38.28;102858.66;5029143;28;99897;-74
2023/05/03 05:26:16;;;;;;;0.40;0.30;;;;;;;23.29;38.36;102866.03;5030697;28;96797;-74
2023/05/03 05:28:43;;;;;;;0.45;0.40;;;;;;;23.29;38.31;102876.97;5029288;28;97030;-74
2023/05/03 05:31:10;;;;;;;0.30;0.30;;;;;;;23.29;38.52;102876.97;5030114;27;98167;-74
2023/05/03 05:33:37;;;;;;;0.40;0.30;;;;;;;23.29;38.37;102876.97;5019484;27;97487;-73
2023/05/03 05:36:05;;;;;;;0.28;0.20;;;;;;;23.29;38.39;102876.97;5024958;28;96823;-74
2023/05/03 05:38:32;;;;;;;0.30;0.20;;;;;;;23.29;38.18;102874.25;5029217;28;97083;-74
2023/05/03 05:41:00;;;;;;;0.30;0.20;;;;;;;23.28;38.22;102864.28;5012469;28;98214;-75
2023/05/03 05:43:26;;;;;;;0.30;0.30;;;;;;;23.29;38.41;102866.03;5028840;27;97447;-75
2023/05/03 05:45:54;;;;;;;0.40;0.40;;;;;;;23.28;38.12;102872.50;5012425;28;96885;-75
2023/05/03 05:48:21;;;;;;;0.25;0.20;;;;;;;23.28;38.13;102871.66;5026773;28;97238;-75
2023/05/03 05:50:48;;;;;;;0.32;0.30;;;;;;;23.28;38.04;102879.88;5019215;28;97043;-75
2023/05/03 05:53:15;;;;;;;0.30;0.20;;;;;;;23.29;38.30;102885.22;5011331;28;96867;-75
2023/05/03 05:55:54;;;;;;;0.50;0.30;;;;;;;23.28;38.07;102885.34;5029422;27;96846;-75
2023/05/03 05:58:22;;;;;;;0.40;0.35;;;;;;;23.27;38.41;102884.50;5015705;27;96046;-75
2023/05/03 06:00:54;;;;;;;0.47;0.40;;;;;;;23.29;37.87;102889.81;5029932;28;97551;-75
2023/05/03 06:03:21;;;;;;;0.30;0.25;;;;;;;23.28;38.35;102879.88;5015950;28;98283;-75
2023/05/03 06:05:49;;;;;;;0.30;0.22;;;;;;;23.28;38.27;102888.09;5027056;28;98081;-75
2023/05/03 06:08:16;;;;;;;0.40;0.30;;;;;;;23.27;37.98;102884.50;5029018;28;96692;-75
2023/05/03 06:10:42;;;;;;;0.50;0.32;;;;;;;23.27;38.12;102884.50;5028291;28;98475;-75
2023/05/03 06:13:09;;;;;;;0.40;0.30;;;;;;;23.27;38.17;102881.75;5028634;28;100581;-75
2023/05/03 06:15:35;;;;;;;0.38;0.20;;;;;;;23.27;38.21;102878.13;5011954;28;96763;-75
2023/05/03 06:18:03;;;;;;;0.38;0.30;;;;;;;23.28;38.16;102874.38;5028710;28;96940;-75
2023/05/03 06:20:30;;;;;;;0.60;0.20;;;;;;;23.28;37.82;102877.13;5028083;28;100269;-75
2023/05/03 06:22:57;;;;;;;0.45;0.30;;;;;;;23.28;38.28;102877.13;5028858;28;98688;-75
2023/05/03 06:25:24;;;;;;;0.52;0.30;;;;;;;23.27;38.16;102879.00;5028303;28;96795;-75
2023/05/03 06:27:52;;;;;;;0.57;0.30;;;;;;;23.27;38.12;102881.75;5012235;28;97428;-75
2023/05/03 06:30:24;;;;;;;0.28;0.28;;;;;;;23.27;38.24;102881.75;5027710;28;100297;-75
2023/05/03 06:32:51;;;;;;;0.20;0.20;;;;;;;23.28;38.48;102877.13;5027781;27;101220;-75
2023/05/03 06:35:20;;;;;;;0.30;0.30;;;;;;;23.28;38.09;102882.63;5018282;28;96664;-75
2023/05/03 06:37:47;;;;;;;0.40;0.30;;;;;;;23.27;38.50;102879.00;5015177;28;97345;-75
2023/05/03 06:40:14;;;;;;;0.30;0.20;;;;;;;23.27;38.16;102875.41;5023682;28;99826;-75
2023/05/03 06:42:41;;;;;;;0.38;0.25;;;;;;;23.26;38.13;102866.31;5025588;28;97829;-75
2023/05/03 06:45:11;;;;;;;0.30;0.30;;;;;;;23.26;38.06;102863.56;5015107;28;96880;-75
2023/05/03 06:47:41;;;;;;;0.20;0.20;;;;;;;23.27;38.26;102870.78;5034254;27;97225;-75
2023/05/03 06:50:09;;;;;;;0.20;0.20;;;;;;;23.27;38.16;102879.00;5015217;28;97460;-75
2023/05/03 06:52:40;;;;;;;0.68;0.30;;;;;;;23.27;38.09;102864.44;5032255;28;96937;-75
2023/05/03 06:55:07;;;;;;;0.25;0.20;;;;;;;23.28;38.28;102866.16;5032589;28;96930;-75
2023/05/03 06:57:33;;;;;;;0.60;0.43;;;;;;;23.27;38.12;102859.81;5020990;28;96810;-75
2023/05/03 07:00:00;;;;;;;0.38;0.30;;;;;;;23.27;38.06;102854.31;5014880;28;98013;-75
2023/05/03 07:02:27;;;;;;;0.60;0.30;;;;;;;23.28;38.33;102853.31;5013517;28;97178;-76
2023/05/03 07:04:54;;;;;;;0.30;0.30;;;;;;;23.28;38.27;102841.50;5012907;28;96745;-75
2023/05/03 07:07:21;;;;;;;0.35;0.20;;;;;;;23.27;38.31;102845.25;5016248;28;98375;-75
2023/05/03 07:09:48;;;;;;;1.20;0.30;;;;;;;23.28;38.45;102852.44;5018863;28;100362;-75
2023/05/03 07:12:15;;;;;;;0.60;0.30;;;;;;;23.27;38.55;102846.09;5012934;28;97796;-75
2023/05/03 07:14:42;;;;;;;0.45;0.30;;;;;;;23.27;38.34;102848.84;5012774;28;96664;-75
2023/05/03 07:17:08;;;;;;;0.30;0.30;;;;;;;23.28;37.91;102847.84;5017866;28;96793;-75
2023/05/03 07:19:36;;;;;;;0.15;0.15;;;;;;;23.27;38.15;102846.09;5019739;28;98809;-75
2023/05/03 07:22:03;;;;;;;0.30;0.28;;;;;;;23.27;38.29;102848.84;5045090;27;96726;-75
2023/05/03 07:24:29;;;;;;;0.15;0.10;;;;;;;23.26;38.29;102852.59;5005436;28;97337;-75
2023/05/03 07:26:57;;;;;;;0.20;0.20;;;;;;;23.27;37.85;102859.81;5027908;28;96938;-75
2023/05/03 07:29:23;;;;;;;0.20;0.20;;;;;;;23.27;38.21;102854.31;5032567;28;97615;-75
2023/05/03 07:31:50;;;;;;;0.50;0.30;;;;;;;23.27;38.43;102854.31;5032854;27;96946;-75
2023/05/03 07:34:19;;;;;;;0.50;0.30;;;;;;;23.27;38.43;102858.94;5026796;28;96647;-75
2023/05/03 07:36:46;;;;;;;0.40;0.20;;;;;;;23.28;38.47;102849.72;5023781;28;97063;-75
2023/05/03 07:39:12;;;;;;;0.20;0.20;;;;;;;23.28;38.17;102846.97;5031096;28;97671;-75
2023/05/03 07:41:39;;;;;;;0.40;0.20;;;;;;;23.27;38.01;102846.09;5020434;28;97157;-75
2023/05/03 07:44:06;;;;;;;0.30;0.20;;;;;;;23.28;38.22;102846.97;5027025;28;96954;-75
2023/05/03 07:46:33;;;;;;;0.10;0.10;;;;;;;23.27;38.01;102851.59;5031609;27;96709;-75
2023/05/03 07:49:02;;;;;;;0.40;0.20;;;;;;;23.28;38.24;102846.97;5019886;27;96975;-75
2023/05/03 07:51:33;;;;;;;0.88;0.35;;;;;;;23.28;38.28;102842.34;5030345;28;96811;-75
2023/05/03 07:54:00;;;;;;;0.22;0.20;;;;;;;23.27;38.36;102842.50;5032726;28;96670;-75
2023/05/03 07:56:27;;;;;;;0.43;0.22;;;;;;;23.28;38.06;102836.00;5013650;28;96834;-75
2023/05/03 07:58:54;;;;;;;0.30;0.20;;;;;;;23.27;38.00;102832.41;5031794;27;97561;-75
2023/05/03 08:01:34;;;;;;;0.30;0.20;;;;;;;23.28;38.03;102827.78;5031247;28;96679;-75
2023/05/03 08:04:00;;;;;;;0.55;0.30;;;;;;;23.28;38.16;102816.81;5019233;28;97078;-75
2023/05/03 08:06:28;;;;;;;0.30;0.20;;;;;;;23.28;38.13;102817.69;5030495;28;96811;-75
2023/05/03 08:08:55;;;;;;;0.50;0.30;;;;;;;23.27;38.04;102818.69;5020974;27;96973;-75
2023/05/03 08:11:21;;;;;;;0.30;0.30;;;;;;;23.28;38.04;102817.69;5025357;28;97293;-75
2023/05/03 08:13:48;;;;;;;0.43;0.30;;;;;;;23.29;38.34;102807.56;5012049;28;96748;-75
2023/05/03 08:16:15;;;;;;;0.40;0.30;;;;;;;23.28;37.93;102800.38;5012927;28;96928;-75
2023/05/03 08:18:42;;;;;;;0.40;0.30;;;;;;;23.27;38.44;102807.72;5017804;28;96907;-75
2023/05/03 08:21:10;;;;;;;0.52;0.30;;;;;;;23.28;38.13;102803.97;5019687;28;96636;-75
2023/05/03 08:23:37;;;;;;;0.43;0.20;;;;;;;23.29;38.37;102802.09;5024310;28;97131;-75
2023/05/03 08:26:06;;;;;;;0.50;0.30;;;;;;;23.28;38.22;102798.50;5011923;28;96754;-75
2023/05/03 08:28:33;;;;;;;0.25;0.20;;;;;;;23.28;38.60;102809.44;5026943;28;98138;-75
2023/05/03 08:31:02;;;;;;;0.20;0.20;;;;;;;23.29;37.96;102800.22;5031585;28;97203;-75
2023/05/03 08:33:28;;;;;;;0.35;0.20;;;;;;;23.29;38.23;102804.84;5029620;28;96942;-75
2023/05/03 08:35:55;;;;;;;0.28;0.20;;;;;;;23.28;37.96;102800.38;5023800;28;97034;-75
2023/05/03 08:38:21;;;;;;;0.25;0.20;;;;;;;23.29;38.42;102799.34;5029232;28;97510;-75
2023/05/03 08:40:50;;;;;;;0.40;0.20;;;;;;;23.29;38.27;102797.47;5011157;28;97094;-75
2023/05/03 08:43:20;;;;;;;0.40;0.20;;;;;;;23.29;38.12;102794.72;5022765;28;97562;-75
2023/05/03 08:45:47;;;;;;;0.20;0.20;;;;;;;23.29;38.39;102802.97;5025864;28;96640;-75
2023/05/03 08:48:13;;;;;;;0.22;0.20;;;;;;;23.29;38.12;102802.97;5010995;28;96610;-75
2023/05/03 08:50:41;;;;;;;0.50;0.25;;;;;;;23.30;38.42;102796.47;5013246;28;96858;-75
2023/05/03 08:53:09;;;;;;;0.52;0.20;;;;;;;23.30;38.25;102806.56;5030217;28;97218;-75
2023/05/03 08:55:36;;;;;;;0.60;0.40;;;;;;;23.30;38.12;102801.94;5030006;28;96777;-74
2023/05/03 08:58:09;;;;;;;0.40;0.30;;;;;;;23.30;37.98;102799.22;5028855;28;96975;-75
2023/05/03 09:00:37;;;;;;;0.30;0.30;;;;;;;23.31;38.28;102802.81;5030180;28;97670;-75
2023/05/03 09:03:03;;;;;;;0.30;0.20;;;;;;;23.31;38.01;102792.72;5011242;28;97053;-75
2023/05/03 09:05:32;;;;;;;0.30;0.20;;;;;;;23.30;38.26;102782.75;5024703;28;96826;-76
2023/05/03 09:08:01;;;;;;;0.30;0.28;;;;;;;23.31;38.05;102779.00;5031021;27;96979;-75
2023/05/03 09:10:28;;;;;;;0.40;0.40;;;;;;;23.31;38.15;102783.63;5031118;27;96787;-76
2023/05/03 09:12:59;;;;;;;0.50;0.30;;;;;;;23.31;37.97;102792.72;5031057;27;97125;-75
2023/05/03 09:15:29;;;;;;;0.20;0.20;;;;;;;23.31;38.39;102780.88;5022817;28;96883;-75
2023/05/03 09:18:14;;;;;;;0.50;0.30;;;;;;;23.31;37.97;102784.50;5024299;28;99554;-75
2023/05/03 09:20:44;;;;;;;0.40;0.30;;;;;;;23.29;38.21;102782.91;5031022;27;97164;-75
2023/05/03 09:23:11;;;;;;;0.20;0.20;;;;;;;23.29;38.15;102792.00;5030375;27;96838;-75
2023/05/03 09:25:49;;;;;;;0.30;0.20;;;;;;;23.30;38.04;102801.09;5031466;27;96949;-75
2023/05/03 09:28:16;;;;;;;0.20;0.17;;;;;;;23.30;38.23;102809.31;5030664;28;98217;-75
2023/05/03 09:30:44;;;;;;;0.30;0.20;;;;;;;23.30;38.08;102810.19;5028945;28;98322;-75
2023/05/03 09:33:11;;;;;;;0.40;0.30;;;;;;;23.30;38.16;102804.69;5029597;28;96733;-75
2023/05/03 09:35:38;;;;;;;0.35;0.20;;;;;;;23.31;37.98;102811.03;5025595;27;96072;-75
2023/05/03 09:38:05;;;;;;;0.20;0.17;;;;;;;23.30;38.28;102801.94;5022142;28;96907;-75
2023/05/03 09:40:31;;;;;;;0.57;0.20;;;;;;;23.30;38.09;102804.69;5030946;28;97314;-75
2023/05/03 09:43:13;;;;;;;0.50;0.22;;;;;;;23.31;38.04;102798.19;5029976;28;97128;-75
2023/05/03 09:45:39;;;;;;;0.30;0.20;;;;;;;23.30;38.24;102796.47;5018154;27;96921;-74
2023/05/03 09:48:07;;;;;;;0.25;0.20;;;;;;;23.30;38.16;102793.72;5030848;28;96922;-75
2023/05/03 09:50:35;;;;;;;0.22;0.20;;;;;;;23.30;38.03;102785.50;5015814;28;97389;-75
2023/05/03 09:53:04;;;;;;;0.20;0.20;;;;;;;23.30;38.05;102788.25;5022592;27;97040;-75
2023/05/03 09:55:32;;;;;;;0.40;0.30;;;;;;;23.30;37.92;102795.59;5025872;28;96880;-75
2023/05/03 09:57:59;;;;;;;0.80;0.20;;;;;;;23.30;38.08;102787.38;5028983;28;96977;-75
2023/05/03 10:00:29;;;;;;;0.22;0.20;;;;;;;23.30;38.39;102787.38;5030224;27;96704;-75
2023/05/03 10:02:59;;;;;;;0.20;0.20;;;;;;;23.29;38.36;102781.03;5016211;28;96737;-75
2023/05/03 10:05:30;;;;;;;0.20;0.20;;;;;;;23.30;38.15;102768.19;5017402;28;96601;-75
2023/05/03 10:08:00;;;;;;;0.20;0.17;;;;;;;23.29;38.27;102775.53;5029812;27;98028;-75
2023/05/03 10:10:29;;;;;;;0.40;0.30;;;;;;;23.30;38.22;102776.41;5032978;28;96613;-75
2023/05/03 10:12:58;;;;;;;0.30;0.20;;;;;;;23.30;38.21;102779.16;5017980;28;96813;-75
2023/05/03 10:15:27;;;;;;;0.35;0.30;;;;;;;23.30;38.34;102785.50;5027296;27;97453;-75
2023/05/03 10:17:56;;;;;;;0.38;0.20;;;;;;;23.31;38.10;102780.88;5013382;28;97826;-75
2023/05/03 10:20:38;;;;;;;0.10;0.10;;;;;;;23.31;38.29;102779.00;5033432;28;97112;-75
2023/05/03 10:23:10;;;;;;;0.20;0.13;;;;;;;23.31;38.53;102780.88;5033983;27;96835;-75
2023/05/03 10:25:39;;;;;;;0.40;0.30;;;;;;;23.30;38.11;102769.06;5013843;28;96633;-75
2023/05/03 10:28:07;;;;;;;0.40;0.30;;;;;;;23.31;38.03;102779.00;5025080;28;97321;-75
2023/05/03 10:30:35;;;;;;;0.22;0.20;;;;;;;23.31;38.11;102779.00;5013628;28;96767;-75
2023/05/03 10:33:10;;;;;;;0.20;0.20;;;;;;;23.33;38.05;102776.13;5024383;28;96761;-75
2023/05/03 10:35:42;;;;;;;0.20;0.20;;;;;;;23.32;37.97;102764.28;5019660;28;96964;-75
2023/05/03 10:38:16;;;;;;;0.77;0.30;;;;;;;23.32;37.98;102764.28;5031088;28;97847;-75
2023/05/03 10:40:43;;;;;;;0.50;0.30;;;;;;;23.32;38.21;102771.66;5032997;27;96718;-75
2023/05/03 10:43:28;;;;;;;0.40;0.30;;;;;;;23.33;38.02;102767.88;5032357;28;96653;-75
2023/05/03 10:46:07;;;;;;;0.30;0.20;;;;;;;23.32;38.26;102769.78;4995283;28;96888;-75
2023/05/03 10:48:34;;;;;;;0.10;0.10;;;;;;;23.32;38.03;102786.22;5025641;28;97729;-75
2023/05/03 10:51:25;;;;;;;0.40;0.28;;;;;;;23.32;38.20;102775.25;5032653;28;96917;-75
2023/05/03 10:53:52;;;;;;;0.30;0.25;;;;;;;23.32;38.08;102777.13;5032113;28;97134;-75
2023/05/03 10:56:18;;;;;;;0.32;0.30;;;;;;;23.32;38.32;102778.00;5013538;28;96919;-75
2023/05/03 10:58:48;;;;;;;0.32;0.30;;;;;;;23.33;38.08;102776.13;5025628;28;96808;-75
2023/05/03 11:01:17;;;;;;;0.20;0.20;;;;;;;23.33;38.25;102776.97;5018460;28;99017;-75
2023/05/03 11:03:48;;;;;;;0.43;0.40;;;;;;;23.33;38.15;102768.75;5018597;28;96743;-75
2023/05/03 11:06:35;;;;;;;0.17;0.17;;;;;;;23.34;38.04;102765.00;5030840;28;96676;-75
2023/05/03 11:09:07;;;;;;;0.30;0.20;;;;;;;23.34;38.22;102764.13;5017012;28;97958;-75
2023/05/03 11:11:38;;;;;;;0.20;0.20;;;;;;;23.34;37.98;102766.88;5018233;28;96965;-75
2023/05/03 11:14:05;;;;;;;0.22;0.20;;;;;;;23.34;38.33;102755.91;5033722;27;97397;-75
2023/05/03 11:16:32;;;;;;;0.28;0.28;;;;;;;23.34;37.97;102762.25;5014968;28;97359;-75
2023/05/03 11:19:00;;;;;;;0.20;0.17;;;;;;;23.36;38.00;102753.88;5031146;27;97779;-75
2023/05/03 11:21:27;;;;;;;0.28;0.20;;;;;;;23.36;38.14;102752.00;5018543;27;97283;-75
2023/05/03 11:23:54;;;;;;;0.20;0.20;;;;;;;23.36;38.02;102751.16;5031406;28;96786;-74
2023/05/03 11:26:24;;;;;;;0.50;0.20;;;;;;;23.36;38.13;102751.16;5019613;28;97328;-75
2023/05/03 11:28:52;;;;;;;0.13;0.13;;;;;;;23.37;37.84;102742.78;5031592;28;97642;-75
2023/05/03 11:31:21;;;;;;;0.63;0.25;;;;;;;23.37;37.92;102737.28;5019114;28;97452;-75